Time;durP1;ratioP1;P1;durP2;ratioP2;P2;SDS_P1;SDS_P2;PMS_P1;PMS_P2;Temp;Humidity;BMP_temperature;BMP_pressure;BME280_temperature;BME280_humidity;BME280_pressure;Samples;Min_cycle;Max_cycle;Signal;HPM_P1;HPM_P2
2023/04/11 00:01:00;;;;;;;2.80;1.17;;;19.00;70.80;;;;;;5033299;28;20022;-70
2023/04/11 00:03:27;;;;;;;3.88;1.27;;;19.00;70.80;;;;;;5033110;28;20067;-70
2023/04/11 00:05:53;;;;;;;2.78;0.85;;;19.00;70.90;;;;;;5031750;28;20541;-70
2023/04/11 00:08:18;;;;;;;1.05;0.77;;;19.00;71.00;;;;;;5032243;28;20061;-70
2023/04/11 00:10:44;;;;;;;2.05;0.77;;;19.00;71.00;;;;;;5033317;28;20070;-70
2023/04/11 00:13:10;;;;;;;1.38;0.77;;;19.00;71.10;;;;;;5033222;28;20479;-70
2023/04/11 00:15:38;;;;;;;3.03;0.85;;;19.00;71.10;;;;;;5033051;28;20033;-70
2023/04/11 00:18:05;;;;;;;2.38;1.10;;;19.00;71.10;;;;;;5031777;28;20029;-70
2023/04/11 00:20:30;;;;;;;1.65;0.90;;;19.00;71.10;;;;;;5032949;28;20490;-70
2023/04/11 00:22:57;;;;;;;1.55;0.70;;;19.00;71.20;;;;;;5033054;28;20025;-70
2023/04/11 00:25:23;;;;;;;1.85;1.02;;;19.00;71.20;;;;;;5032888;28;20024;-71
2023/04/11 00:27:48;;;;;;;2.72;1.00;;;19.00;71.30;;;;;;5032951;28;20033;-70
2023/04/11 00:30:14;;;;;;;1.73;0.98;;;18.90;71.20;;;;;;5032925;28;20056;-70
2023/04/11 00:32:40;;;;;;;1.42;0.80;;;18.90;71.20;;;;;;5031770;28;20033;-70
2023/04/11 00:35:07;;;;;;;3.67;1.10;;;18.90;71.30;;;;;;5032611;28;20034;-70
2023/04/11 00:37:34;;;;;;;3.67;1.02;;;18.90;71.30;;;;;;5033135;28;20029;-70
2023/04/11 00:40:00;;;;;;;3.67;1.17;;;18.90;71.30;;;;;;5032806;28;20018;-70
2023/04/11 00:42:26;;;;;;;1.42;0.77;;;18.90;71.30;;;;;;5032795;28;20048;-70
2023/04/11 00:44:51;;;;;;;3.78;1.38;;;18.90;71.50;;;;;;5032836;28;20021;-70
2023/04/11 00:47:17;;;;;;;1.83;0.98;;;18.90;71.40;;;;;;5031253;28;20033;-70
2023/04/11 00:49:42;;;;;;;5.15;0.88;;;18.90;71.50;;;;;;5031399;28;20034;-70
2023/04/11 00:52:08;;;;;;;3.67;1.00;;;18.90;71.50;;;;;;5015173;28;20033;-70
2023/04/11 00:54:34;;;;;;;3.90;1.05;;;18.90;71.50;;;;;;5032526;28;20041;-70
2023/04/11 00:57:02;;;;;;;2.08;0.98;;;18.90;71.50;;;;;;5033392;28;20531;-70
2023/04/11 00:59:29;;;;;;;3.80;1.08;;;18.90;71.60;;;;;;5035550;28;20029;-70
2023/04/11 01:01:55;;;;;;;2.28;0.90;;;18.90;71.60;;;;;;5035104;28;20021;-70
2023/04/11 01:04:20;;;;;;;2.90;1.02;;;18.90;71.70;;;;;;5035527;28;20018;-70
2023/04/11 01:06:48;;;;;;;2.10;0.70;;;18.90;71.60;;;;;;5036600;28;20029;-70
2023/04/11 01:09:14;;;;;;;2.42;0.80;;;18.90;71.70;;;;;;5035333;28;20112;-70
2023/04/11 01:11:40;;;;;;;1.88;0.98;;;18.90;71.70;;;;;;5035202;28;20112;-70
2023/04/11 01:14:05;;;;;;;2.72;0.90;;;18.90;71.70;;;;;;5034889;28;20029;-70
2023/04/11 01:16:31;;;;;;;3.85;1.05;;;18.90;71.70;;;;;;5034854;28;20381;-69
2023/04/11 01:18:56;;;;;;;3.15;0.93;;;18.90;71.70;;;;;;5036415;28;20021;-70
2023/04/11 01:21:22;;;;;;;2.80;0.80;;;18.80;71.60;;;;;;5035008;28;20017;-70
2023/04/11 01:23:51;;;;;;;2.75;0.85;;;18.80;71.60;;;;;;5035130;28;20036;-70
2023/04/11 01:26:17;;;;;;;1.63;0.70;;;18.80;71.60;;;;;;5034697;28;20484;-70
2023/04/11 01:28:42;;;;;;;2.72;0.75;;;18.80;71.60;;;;;;5036099;28;20026;-70
2023/04/11 01:31:08;;;;;;;3.00;1.00;;;18.90;72.70;;;;;;5035832;28;20031;-70
2023/04/11 01:33:34;;;;;;;2.08;0.80;;;18.90;71.70;;;;;;5036159;28;20021;-70
2023/04/11 01:35:59;;;;;;;3.30;0.80;;;18.90;71.70;;;;;;5034643;28;20103;-70
2023/04/11 01:38:25;;;;;;;3.30;0.85;;;18.80;71.60;;;;;;5034590;28;20064;-70
2023/04/11 01:40:51;;;;;;;3.90;0.95;;;18.90;71.70;;;;;;5034763;28;20025;-69
2023/04/11 01:43:17;;;;;;;4.35;1.35;;;18.80;71.60;;;;;;5034417;28;20550;-70
2023/04/11 01:45:42;;;;;;;2.05;0.80;;;18.90;71.70;;;;;;5034447;28;20025;-70
2023/04/11 01:48:08;;;;;;;4.50;0.90;;;18.90;71.70;;;;;;5034373;28;20038;-70
2023/04/11 01:50:34;;;;;;;1.30;0.80;;;18.90;71.70;;;;;;5034501;28;20423;-70
2023/04/11 01:53:00;;;;;;;2.15;0.80;;;18.90;71.70;;;;;;5034349;28;20051;-70
2023/04/11 01:55:26;;;;;;;1.88;0.93;;;18.80;71.60;;;;;;5035454;28;20045;-70
2023/04/11 01:57:51;;;;;;;3.45;1.10;;;18.90;71.70;;;;;;5034394;28;20041;-70
2023/04/11 02:00:18;;;;;;;3.97;1.08;;;18.90;71.70;;;;;;5035358;28;20025;-70
2023/04/11 02:02:44;;;;;;;3.42;1.15;;;18.80;71.70;;;;;;5034337;28;20018;-70
2023/04/11 02:05:10;;;;;;;3.83;1.13;;;18.80;71.80;;;;;;5035369;28;20055;-70
2023/04/11 02:07:36;;;;;;;3.83;1.10;;;18.90;71.90;;;;;;5017587;28;20041;-70
2023/04/11 02:10:02;;;;;;;2.67;0.77;;;18.80;72.00;;;;;;5032772;28;20033;-70
2023/04/11 02:12:27;;;;;;;3.50;1.10;;;18.80;71.90;;;;;;5033902;28;20029;-70
2023/04/11 02:14:53;;;;;;;2.50;0.93;;;18.80;72.00;;;;;;5033661;28;20029;-70
2023/04/11 02:17:21;;;;;;;3.83;0.93;;;18.80;72.00;;;;;;5034991;28;20018;-70
2023/04/11 02:19:46;;;;;;;3.28;0.98;;;18.80;72.00;;;;;;5035031;28;20080;-70
2023/04/11 02:22:12;;;;;;;4.50;1.23;;;18.80;72.00;;;;;;5033846;28;20025;-70
2023/04/11 02:24:38;;;;;;;3.60;1.10;;;18.80;72.00;;;;;;5035071;28;20022;-70
2023/04/11 02:27:04;;;;;;;4.03;1.10;;;18.80;72.10;;;;;;5034854;28;20472;-70
2023/04/11 02:29:29;;;;;;;4.40;0.80;;;18.80;72.10;;;;;;5033611;28;20082;-70
2023/04/11 02:31:55;;;;;;;3.00;1.00;;;18.80;72.20;;;;;;5034914;28;20396;-71
2023/04/11 02:34:21;;;;;;;3.33;1.13;;;18.80;72.20;;;;;;5033599;28;20032;-70
2023/04/11 02:36:47;;;;;;;2.53;1.05;;;18.80;72.20;;;;;;5034819;28;20407;-70
2023/04/11 02:39:13;;;;;;;1.92;0.90;;;18.80;72.30;;;;;;5033271;28;20104;-70
2023/04/11 02:41:39;;;;;;;4.43;1.00;;;18.70;72.20;;;;;;5033425;28;20159;-70
2023/04/11 02:44:05;;;;;;;4.28;0.90;;;18.80;72.30;;;;;;5033226;28;20540;-71
2023/04/11 02:46:31;;;;;;;1.90;0.70;;;18.80;72.30;;;;;;5034489;28;20093;-70
2023/04/11 02:48:56;;;;;;;3.63;1.02;;;18.80;72.20;;;;;;5033392;28;20044;-70
2023/04/11 02:51:22;;;;;;;2.47;0.90;;;18.70;72.20;;;;;;5033102;28;20060;-70
2023/04/11 02:53:48;;;;;;;3.55;0.93;;;18.80;72.30;;;;;;5034285;28;20065;-71
2023/04/11 02:56:17;;;;;;;2.35;0.95;;;18.70;72.30;;;;;;5034379;28;20053;-70
2023/04/11 02:58:43;;;;;;;2.25;0.65;;;18.70;72.30;;;;;;5033102;28;20025;-70
2023/04/11 03:01:10;;;;;;;2.42;0.90;;;18.70;72.30;;;;;;5034200;28;20036;-70
2023/04/11 03:03:37;;;;;;;4.32;1.20;;;18.80;72.30;;;;;;5033112;28;20021;-70
2023/04/11 03:06:03;;;;;;;3.03;1.05;;;18.70;72.30;;;;;;5032514;28;20030;-70
2023/04/11 03:08:29;;;;;;;2.55;0.95;;;18.70;72.30;;;;;;5024195;28;20507;-70
2023/04/11 03:10:55;;;;;;;2.67;0.93;;;18.70;72.30;;;;;;5019718;28;20033;-70
2023/04/11 03:13:21;;;;;;;4.80;1.05;;;18.70;72.30;;;;;;5027948;28;20036;-70
2023/04/11 03:15:47;;;;;;;2.25;0.90;;;18.70;72.30;;;;;;5032702;28;20034;-70
2023/04/11 03:18:12;;;;;;;2.88;1.10;;;18.70;72.40;;;;;;5032547;28;20025;-70
2023/04/11 03:20:38;;;;;;;4.63;0.70;;;18.70;72.40;;;;;;4999182;28;20484;-70
2023/04/11 03:23:04;;;;;;;4.75;1.00;;;18.70;72.40;;;;;;5014185;28;20029;-70
2023/04/11 03:25:29;;;;;;;1.90;0.90;;;18.70;72.50;;;;;;5014182;28;20022;-70
2023/04/11 03:27:55;;;;;;;2.60;1.10;;;18.70;72.50;;;;;;5013877;28;20029;-70
2023/04/11 03:30:21;;;;;;;2.00;0.90;;;18.70;72.40;;;;;;5014166;28;20030;-70
2023/04/11 03:32:47;;;;;;;3.60;1.17;;;18.70;72.40;;;;;;5012774;28;20036;-70
2023/04/11 03:35:13;;;;;;;2.05;0.80;;;18.70;72.40;;;;;;5012618;28;20064;-70
2023/04/11 03:37:39;;;;;;;2.08;0.90;;;18.70;72.50;;;;;;5012770;28;20045;-70
2023/04/11 03:40:07;;;;;;;2.33;0.73;;;18.70;72.50;;;;;;5013703;28;20061;-70
2023/04/11 03:42:34;;;;;;;3.65;1.00;;;18.70;72.50;;;;;;5012329;28;20018;-70
2023/04/11 03:45:00;;;;;;;4.38;1.33;;;18.70;72.50;;;;;;5012756;28;20026;-71
2023/04/11 03:47:26;;;;;;;2.55;1.20;;;18.80;72.60;;;;;;5026085;28;20044;-70
2023/04/11 03:49:51;;;;;;;2.45;1.00;;;18.70;72.70;;;;;;5032290;28;20041;-70
2023/04/11 03:52:17;;;;;;;1.48;0.77;;;18.70;72.70;;;;;;5033423;28;20384;-70
2023/04/11 03:54:43;;;;;;;1.95;1.00;;;18.70;72.70;;;;;;5033252;28;20483;-70
2023/04/11 03:57:10;;;;;;;4.57;1.35;;;18.70;72.70;;;;;;5032006;28;20045;-70
2023/04/11 03:59:36;;;;;;;2.60;1.10;;;18.70;72.70;;;;;;5033410;28;20108;-70
2023/04/11 04:02:01;;;;;;;2.13;0.90;;;18.70;73.70;;;;;;5033096;28;20116;-70
2023/04/11 04:04:27;;;;;;;2.65;0.80;;;18.70;72.70;;;;;;5033112;28;20072;-70
2023/04/11 04:06:55;;;;;;;1.30;0.68;;;18.70;72.70;;;;;;5033355;28;20057;-70
2023/04/11 04:09:22;;;;;;;4.05;0.90;;;18.70;72.70;;;;;;5033070;28;20420;-69
2023/04/11 04:11:48;;;;;;;2.67;0.93;;;18.70;72.70;;;;;;5031591;28;20022;-70
2023/04/11 04:14:13;;;;;;;2.70;1.08;;;18.70;72.70;;;;;;5033200;28;20083;-70
2023/04/11 04:16:39;;;;;;;1.95;1.00;;;18.70;72.70;;;;;;5032856;28;20124;-70
2023/04/11 04:19:04;;;;;;;1.45;0.70;;;18.70;72.70;;;;;;5032052;28;20079;-70
2023/04/11 04:21:31;;;;;;;2.35;1.05;;;18.70;72.70;;;;;;5033038;28;20055;-70
2023/04/11 04:24:02;;;;;;;2.13;1.08;;;18.70;72.80;;;;;;5032996;28;20047;-70
2023/04/11 04:26:28;;;;;;;1.73;0.75;;;18.70;72.80;;;;;;5032722;28;20017;-70
2023/04/11 04:28:56;;;;;;;3.83;0.90;;;18.70;72.80;;;;;;5031475;28;20060;-70
2023/04/11 04:31:24;;;;;;;1.95;0.73;;;18.70;72.80;;;;;;5032389;28;20021;-70
2023/04/11 04:33:50;;;;;;;3.05;0.85;;;18.70;73.00;;;;;;5032940;28;20104;-71
2023/04/11 04:36:16;;;;;;;2.65;0.93;;;18.70;72.90;;;;;;5032903;28;20067;-70
2023/04/11 04:38:43;;;;;;;2.47;0.73;;;18.70;72.90;;;;;;5032682;28;20033;-70
2023/04/11 04:41:14;;;;;;;2.15;0.95;;;18.70;73.00;;;;;;5031349;28;20041;-70
2023/04/11 04:43:40;;;;;;;2.28;0.90;;;18.70;73.00;;;;;;5032836;28;20032;-70
2023/04/11 04:46:06;;;;;;;4.20;1.23;;;18.70;73.00;;;;;;5031553;28;20056;-69
2023/04/11 04:48:32;;;;;;;1.85;0.80;;;18.70;73.00;;;;;;5032608;28;20069;-69
2023/04/11 04:50:57;;;;;;;1.80;0.70;;;18.70;73.00;;;;;;5031564;28;20036;-69
2023/04/11 04:53:23;;;;;;;1.73;0.80;;;18.70;73.00;;;;;;5032336;28;20049;-69
2023/04/11 04:55:49;;;;;;;1.73;0.80;;;18.70;73.00;;;;;;5032558;28;20091;-69
2023/04/11 04:58:14;;;;;;;2.60;0.90;;;18.70;73.10;;;;;;5032527;28;20033;-70
2023/04/11 05:00:40;;;;;;;1.42;0.77;;;18.70;73.00;;;;;;5032870;28;20472;-70
2023/04/11 05:03:07;;;;;;;1.50;0.70;;;18.70;73.10;;;;;;5032833;28;20377;-70
2023/04/11 05:05:33;;;;;;;2.35;1.13;;;18.70;73.00;;;;;;5032587;28;20025;-70
2023/04/11 05:07:58;;;;;;;4.55;1.42;;;18.70;73.00;;;;;;5032511;28;20045;-70
2023/04/11 05:10:24;;;;;;;2.78;1.10;;;18.70;73.00;;;;;;5031139;28;20036;-69
2023/04/11 05:12:52;;;;;;;1.52;0.68;;;18.70;73.10;;;;;;5032702;28;20021;-70
2023/04/11 05:15:18;;;;;;;2.95;0.88;;;18.70;73.00;;;;;;5032462;28;20021;-70
2023/04/11 05:17:43;;;;;;;2.90;0.90;;;18.70;73.00;;;;;;5030932;28;20021;-70
2023/04/11 05:20:09;;;;;;;1.73;0.70;;;18.70;73.10;;;;;;5032794;28;20076;-70
2023/04/11 05:22:36;;;;;;;0.90;0.50;;;18.70;73.10;;;;;;5031184;28;20033;-70
2023/04/11 05:25:02;;;;;;;5.43;0.80;;;18.70;73.10;;;;;;5032393;28;20030;-70
2023/04/11 05:27:28;;;;;;;2.47;0.90;;;18.70;73.10;;;;;;5032157;28;20088;-70
2023/04/11 05:29:53;;;;;;;2.03;0.80;;;18.60;73.10;;;;;;5032428;28;20048;-69
2023/04/11 05:32:19;;;;;;;2.13;0.82;;;18.60;73.00;;;;;;5032431;28;20514;-70
2023/04/11 05:34:52;;;;;;;2.22;0.60;;;18.70;73.10;;;;;;5024260;28;20075;-70
2023/04/11 05:37:18;;;;;;;1.15;0.60;;;18.60;73.00;;;;;;5015465;28;20025;-70
2023/04/11 05:39:43;;;;;;;1.30;0.57;;;18.70;73.00;;;;;;5014130;28;20043;-70
2023/04/11 05:42:09;;;;;;;1.77;0.85;;;18.70;73.00;;;;;;5031744;28;20079;-70
2023/04/11 05:44:35;;;;;;;5.38;1.23;;;18.70;73.10;;;;;;5034870;28;20092;-70
2023/04/11 05:47:00;;;;;;;4.85;1.20;;;18.70;73.20;;;;;;5026644;28;20097;-70
2023/04/11 05:49:26;;;;;;;1.17;0.70;;;18.70;73.20;;;;;;5026797;28;20160;-70
2023/04/11 05:51:51;;;;;;;1.73;0.85;;;18.70;73.20;;;;;;5028841;28;20014;-69
2023/04/11 05:54:29;;;;;;;4.10;0.98;;;18.60;73.10;;;;;;5023088;28;20524;-70
2023/04/11 05:56:55;;;;;;;1.60;0.63;;;18.70;73.20;;;;;;5016401;28;20053;-70
2023/04/11 05:59:22;;;;;;;3.08;1.00;;;18.70;73.30;;;;;;5034967;28;20018;-70
2023/04/11 06:01:49;;;;;;;2.63;1.20;;;18.60;73.30;;;;;;5034877;28;20013;-70
2023/04/11 06:04:18;;;;;;;1.67;0.75;;;18.70;73.30;;;;;;5034791;28;20411;-69
2023/04/11 06:06:43;;;;;;;1.63;0.90;;;18.70;72.40;;;;;;5034743;28;20030;-69
2023/04/11 06:09:09;;;;;;;3.50;0.95;;;18.60;70.50;;;;;;5017264;28;20155;-68
2023/04/11 06:11:35;;;;;;;2.97;1.13;;;18.60;70.50;;;;;;5034845;28;20041;-69
2023/04/11 06:14:00;;;;;;;2.65;0.90;;;18.50;70.70;;;;;;5017132;28;20484;-70
2023/04/11 06:16:26;;;;;;;3.00;1.17;;;18.50;70.60;;;;;;5034453;28;20028;-69
2023/04/11 06:18:52;;;;;;;1.65;1.08;;;18.50;70.40;;;;;;5034655;28;20022;-69
2023/04/11 06:21:17;;;;;;;4.65;0.63;;;18.50;70.30;;;;;;5026333;28;20049;-69
2023/04/11 06:23:43;;;;;;;2.03;0.85;;;18.50;70.20;;;;;;5014879;28;20096;-69
2023/04/11 06:26:09;;;;;;;2.38;0.88;;;18.50;70.30;;;;;;5014856;28;20049;-69
2023/04/11 06:28:34;;;;;;;3.28;1.13;;;18.50;70.20;;;;;;5014733;28;20029;-70
2023/04/11 06:31:00;;;;;;;4.72;1.08;;;18.50;70.10;;;;;;5014764;28;20022;-69
2023/04/11 06:33:25;;;;;;;2.03;1.00;;;18.50;69.90;;;;;;5013189;28;20038;-69
2023/04/11 06:35:51;;;;;;;3.08;0.90;;;18.50;70.00;;;;;;5014427;28;20026;-69
2023/04/11 06:38:17;;;;;;;3.03;0.70;;;18.50;69.90;;;;;;5013328;28;20484;-69
2023/04/11 06:40:42;;;;;;;2.53;1.00;;;18.50;69.90;;;;;;5021929;28;20082;-70
2023/04/11 06:43:08;;;;;;;9.45;1.52;;;18.50;69.80;;;;;;5034167;28;20029;-71
2023/04/11 06:45:33;;;;;;;9.73;1.50;;;18.50;70.40;;;;;;5032340;28;20025;-70
2023/04/11 06:47:59;;;;;;;6.57;1.15;;;18.50;70.70;;;;;;5031694;28;20583;-70
2023/04/11 06:50:25;;;;;;;5.82;1.27;;;18.50;70.90;;;;;;5031729;28;20021;-70
2023/04/11 06:52:50;;;;;;;9.73;1.55;;;18.40;70.90;;;;;;5031912;28;20268;-70
2023/04/11 06:55:16;;;;;;;6.50;1.20;;;18.40;71.10;;;;;;5031170;28;20049;-70
2023/04/11 06:57:42;;;;;;;2.47;1.20;;;18.50;71.30;;;;;;5032164;28;20492;-70
2023/04/11 07:00:08;;;;;;;3.05;1.40;;;18.40;71.40;;;;;;5015009;28;20100;-70
2023/04/11 07:02:38;;;;;;;5.93;1.33;;;18.40;71.40;;;;;;5032740;28;20017;-70
2023/04/11 07:05:04;;;;;;;6.35;1.20;;;18.40;71.40;;;;;;5031238;28;20018;-70
2023/04/11 07:07:30;;;;;;;5.07;1.77;;;18.40;71.50;;;;;;5033471;28;20021;-70
2023/04/11 07:09:56;;;;;;;5.15;1.20;;;18.40;71.40;;;;;;5033776;28;20100;-70
2023/04/11 07:12:22;;;;;;;4.45;1.45;;;18.40;71.30;;;;;;5016046;28;20547;-70
2023/04/11 07:14:47;;;;;;;6.25;1.48;;;18.40;71.30;;;;;;5033495;28;20030;-70
2023/04/11 07:17:13;;;;;;;6.53;1.98;;;18.40;71.30;;;;;;5033559;28;20033;-70
2023/04/11 07:19:39;;;;;;;4.63;1.48;;;18.40;71.30;;;;;;5032141;28;20484;-70
2023/04/11 07:22:05;;;;;;;4.15;1.48;;;18.40;71.20;;;;;;5032231;28;20105;-70
2023/04/11 07:24:30;;;;;;;3.25;1.13;;;18.40;71.20;;;;;;5033152;28;20099;-70
2023/04/11 07:26:57;;;;;;;3.75;1.42;;;18.40;71.20;;;;;;5033427;28;20372;-70
2023/04/11 07:29:23;;;;;;;4.15;1.10;;;18.40;71.10;;;;;;5032238;28;20017;-70
2023/04/11 07:31:50;;;;;;;4.72;1.35;;;18.40;71.00;;;;;;5033074;28;20025;-70
2023/04/11 07:34:16;;;;;;;5.95;1.50;;;18.40;71.10;;;;;;5033269;28;20032;-70
2023/04/11 07:36:41;;;;;;;3.60;1.05;;;18.40;71.00;;;;;;5031752;28;20033;-70
2023/04/11 07:39:11;;;;;;;5.47;1.75;;;18.40;70.90;;;;;;5033259;28;20062;-70
2023/04/11 07:41:36;;;;;;;3.40;0.80;;;18.40;70.90;;;;;;5032717;28;20028;-70
2023/04/11 07:44:05;;;;;;;4.63;1.40;;;18.30;70.70;;;;;;5031944;28;20022;-70
2023/04/11 07:46:30;;;;;;;3.63;1.05;;;18.40;70.80;;;;;;5031717;28;20060;-70
2023/04/11 07:48:56;;;;;;;4.25;1.50;;;18.40;70.70;;;;;;5032727;28;20053;-70
2023/04/11 07:51:22;;;;;;;4.45;1.67;;;18.30;70.70;;;;;;5033037;28;20112;-70
2023/04/11 07:53:47;;;;;;;3.72;1.45;;;18.30;70.70;;;;;;5031357;28;20041;-70
2023/04/11 07:56:14;;;;;;;3.42;1.27;;;18.30;70.70;;;;;;5032899;28;20028;-70
2023/04/11 07:58:39;;;;;;;4.68;1.50;;;18.30;70.60;;;;;;5015070;28;20037;-70
2023/04/11 08:01:07;;;;;;;3.78;1.30;;;18.30;70.60;;;;;;5031583;28;20029;-70
2023/04/11 08:03:33;;;;;;;2.90;1.15;;;18.30;70.50;;;;;;5031433;28;20533;-70
2023/04/11 08:05:59;;;;;;;3.65;1.50;;;18.30;70.60;;;;;;5031243;28;20104;-70
2023/04/11 08:08:25;;;;;;;3.45;1.13;;;18.30;71.50;;;;;;5032799;28;20057;-70
2023/04/11 08:10:50;;;;;;;3.65;1.20;;;18.30;70.50;;;;;;5032695;28;20032;-70
2023/04/11 08:13:16;;;;;;;2.15;0.98;;;18.30;70.50;;;;;;5032747;28;20025;-70
2023/04/11 08:15:42;;;;;;;3.15;1.10;;;18.30;70.50;;;;;;5032425;28;20041;-70
2023/04/11 08:18:07;;;;;;;3.70;1.30;;;18.30;70.50;;;;;;5032349;28;20021;-70
2023/04/11 08:20:33;;;;;;;4.65;1.50;;;18.30;70.50;;;;;;5032782;28;20534;-70
2023/04/11 08:23:02;;;;;;;4.03;1.20;;;18.30;70.40;;;;;;5032655;28;20092;-70
2023/04/11 08:25:28;;;;;;;3.67;1.40;;;18.30;70.40;;;;;;5032652;28;20559;-70
2023/04/11 08:27:54;;;;;;;3.40;1.35;;;18.30;70.40;;;;;;5032146;28;20029;-70
2023/04/11 08:30:20;;;;;;;4.65;1.13;;;18.30;70.40;;;;;;5032425;28;20018;-70
2023/04/11 08:32:45;;;;;;;3.30;1.23;;;18.20;70.30;;;;;;5031999;28;20108;-70
2023/04/11 08:35:11;;;;;;;4.00;1.50;;;18.30;70.40;;;;;;5032400;28;20458;-70
2023/04/11 08:37:37;;;;;;;3.17;1.35;;;18.30;70.30;;;;;;5031030;28;20033;-70
2023/04/11 08:40:05;;;;;;;3.28;1.02;;;18.20;70.30;;;;;;5032050;28;20021;-70
2023/04/11 08:42:31;;;;;;;3.95;1.30;;;18.20;70.30;;;;;;5032236;28;20563;-70
2023/04/11 08:45:02;;;;;;;3.60;1.52;;;18.30;70.30;;;;;;5031230;28;20097;-70
2023/04/11 08:47:28;;;;;;;3.58;1.30;;;18.30;70.30;;;;;;5030866;28;20022;-70
2023/04/11 08:49:55;;;;;;;4.15;1.40;;;18.30;70.30;;;;;;5032031;28;20108;-70
2023/04/11 08:52:22;;;;;;;3.88;1.40;;;18.20;70.30;;;;;;5032342;28;20067;-70
2023/04/11 08:54:48;;;;;;;2.33;1.17;;;18.20;70.20;;;;;;5031975;28;20411;-70
2023/04/11 08:57:27;;;;;;;5.22;1.60;;;18.20;70.20;;;;;;5030949;28;20068;-70
2023/04/11 08:59:54;;;;;;;1.88;1.10;;;18.30;71.20;;;;;;5031949;28;20021;-70
2023/04/11 09:02:20;;;;;;;3.33;1.55;;;18.20;70.20;;;;;;5031940;28;20010;-70
2023/04/11 09:04:46;;;;;;;6.22;1.48;;;18.20;70.20;;;;;;5032009;28;20026;-70
2023/04/11 09:07:12;;;;;;;3.22;1.30;;;18.20;70.20;;;;;;5032324;28;20017;-70
2023/04/11 09:09:38;;;;;;;4.40;1.70;;;18.20;70.10;;;;;;5030839;28;20036;-70
2023/04/11 09:12:04;;;;;;;3.78;1.42;;;18.20;70.10;;;;;;5030853;28;20100;-70
2023/04/11 09:14:30;;;;;;;4.30;1.60;;;18.20;70.10;;;;;;5030862;28;20115;-70
2023/04/11 09:17:05;;;;;;;4.25;1.23;;;18.20;70.10;;;;;;5030370;28;20049;-70
2023/04/11 09:19:32;;;;;;;2.25;0.98;;;18.20;70.10;;;;;;5035110;28;20380;-70
2023/04/11 09:22:00;;;;;;;3.22;1.20;;;18.20;70.10;;;;;;5018128;28;20049;-70
2023/04/11 09:24:26;;;;;;;2.42;1.23;;;18.20;70.10;;;;;;5034470;28;20112;-70
2023/04/11 09:27:15;;;;;;;3.13;1.17;;;18.20;70.20;;;;;;5034459;28;20369;-70
2023/04/11 09:29:47;;;;;;;4.68;1.45;;;18.20;70.20;;;;;;5017822;28;20017;-70
2023/04/11 09:32:32;;;;;;;3.73;1.20;;;18.20;70.10;;;;;;5035544;28;20024;-70
2023/04/11 09:35:22;;;;;;;5.43;1.90;;;18.20;70.10;;;;;;5034291;28;20033;-70
2023/04/11 09:37:52;;;;;;;4.38;1.30;;;18.20;70.10;;;;;;5033941;28;20057;-70
2023/04/11 09:40:20;;;;;;;2.35;1.08;;;18.20;70.20;;;;;;5034378;28;20442;-70
2023/04/11 09:42:47;;;;;;;3.67;1.35;;;18.20;70.20;;;;;;5033868;28;20398;-70
2023/04/11 09:45:22;;;;;;;3.60;1.25;;;18.20;70.20;;;;;;5035125;28;20024;-70
2023/04/11 09:47:49;;;;;;;3.08;1.48;;;18.20;70.10;;;;;;5033991;28;20036;-70
2023/04/11 09:50:14;;;;;;;3.88;1.15;;;18.20;71.10;;;;;;5034091;28;20021;-70
2023/04/11 09:52:41;;;;;;;4.35;1.40;;;18.20;70.10;;;;;;5033817;28;20029;-70
2023/04/11 09:55:13;;;;;;;2.28;0.90;;;18.20;70.10;;;;;;5017383;28;20049;-70
2023/04/11 09:57:40;;;;;;;2.65;1.33;;;18.10;70.10;;;;;;5035033;28;20057;-70
2023/04/11 10:00:15;;;;;;;2.80;1.35;;;18.10;70.00;;;;;;5033555;28;20051;-71
2023/04/11 10:02:43;;;;;;;1.63;1.00;;;18.10;70.00;;;;;;5033779;28;20408;-70
2023/04/11 10:05:09;;;;;;;5.18;1.60;;;18.20;70.00;;;;;;5017411;28;20025;-70
2023/04/11 10:07:42;;;;;;;3.55;1.30;;;18.20;70.00;;;;;;5033777;28;20033;-70
2023/04/11 10:10:09;;;;;;;4.35;1.65;;;18.10;70.00;;;;;;5018210;28;20025;-70
2023/04/11 10:12:34;;;;;;;1.55;0.90;;;18.10;70.00;;;;;;5033574;28;20025;-70
2023/04/11 10:15:07;;;;;;;2.90;1.27;;;18.10;70.00;;;;;;5034555;28;20088;-70
2023/04/11 10:17:33;;;;;;;2.17;1.00;;;18.10;70.00;;;;;;5033525;28;20021;-70
2023/04/11 10:19:58;;;;;;;3.10;1.30;;;18.10;69.90;;;;;;5033344;28;20025;-70
2023/04/11 10:22:39;;;;;;;3.65;1.00;;;18.20;70.00;;;;;;5034629;28;20025;-70
2023/04/11 10:25:20;;;;;;;4.18;1.40;;;18.10;70.00;;;;;;5034401;28;20024;-70
2023/04/11 10:28:01;;;;;;;3.10;1.42;;;18.10;70.00;;;;;;5034325;28;20029;-70
2023/04/11 10:30:38;;;;;;;3.97;1.20;;;18.20;70.20;;;;;;5017524;28;20435;-70
2023/04/11 10:33:14;;;;;;;2.00;1.15;;;18.10;70.10;;;;;;5034234;28;20029;-70
2023/04/11 10:36:08;;;;;;;2.85;1.25;;;18.20;70.20;;;;;;5033179;28;20120;-70
2023/04/11 10:38:40;;;;;;;1.90;0.77;;;18.10;70.10;;;;;;5033128;28;20030;-70
2023/04/11 10:41:21;;;;;;;2.28;1.27;;;18.20;70.20;;;;;;5034083;28;20033;-70
2023/04/11 10:43:47;;;;;;;4.22;1.23;;;18.10;70.10;;;;;;5032741;28;20026;-70
2023/04/11 10:46:18;;;;;;;2.25;1.02;;;18.10;70.10;;;;;;5033152;28;20036;-70
2023/04/11 10:49:03;;;;;;;2.58;1.20;;;18.10;70.10;;;;;;5032778;28;20014;-70
2023/04/11 10:51:30;;;;;;;2.70;1.10;;;18.10;70.10;;;;;;5034126;28;20116;-70
2023/04/11 10:53:58;;;;;;;2.03;0.90;;;18.10;70.10;;;;;;5032517;28;20041;-70
2023/04/11 10:56:42;;;;;;;2.00;1.08;;;18.10;70.20;;;;;;5016727;28;20068;-70
2023/04/11 10:59:30;;;;;;;1.63;1.00;;;18.10;70.10;;;;;;5033779;28;20033;-70
2023/04/11 11:02:00;;;;;;;1.92;0.82;;;18.20;70.20;;;;;;5033661;28;20551;-70
2023/04/11 11:04:32;;;;;;;1.98;1.17;;;18.10;70.20;;;;;;5032728;28;20120;-70
2023/04/11 11:06:58;;;;;;;3.70;1.10;;;18.10;70.20;;;;;;5032579;28;20021;-70
2023/04/11 11:09:25;;;;;;;2.10;1.02;;;18.10;70.10;;;;;;5033589;28;20033;-70
2023/04/11 11:12:08;;;;;;;1.77;1.00;;;18.10;70.10;;;;;;5032259;28;20025;-70
2023/04/11 11:14:34;;;;;;;2.35;1.00;;;18.10;70.10;;;;;;5033765;28;20029;-70
2023/04/11 11:17:01;;;;;;;1.25;0.63;;;18.10;70.10;;;;;;5033369;28;20391;-70
2023/04/11 11:19:27;;;;;;;2.33;0.98;;;18.20;70.10;;;;;;5033595;28;20033;-70
2023/04/11 11:21:53;;;;;;;2.28;1.00;;;18.10;70.10;;;;;;5015923;28;20067;-70
2023/04/11 11:24:23;;;;;;;1.67;0.90;;;18.10;70.10;;;;;;5033582;28;20036;-70
2023/04/11 11:26:49;;;;;;;2.08;1.08;;;18.10;70.10;;;;;;5032005;28;20021;-70
2023/04/11 11:29:15;;;;;;;2.08;0.90;;;18.10;70.10;;;;;;5033332;28;20033;-70
2023/04/11 11:31:45;;;;;;;1.77;0.88;;;18.10;70.20;;;;;;5015808;28;20022;-70
2023/04/11 11:34:11;;;;;;;1.92;0.93;;;18.10;70.10;;;;;;5015894;28;20030;-70
2023/04/11 11:36:41;;;;;;;3.70;1.17;;;18.10;70.10;;;;;;5033304;28;20101;-70
2023/04/11 11:39:07;;;;;;;2.60;1.08;;;18.10;70.10;;;;;;5015624;28;20076;-70
2023/04/11 11:41:33;;;;;;;1.80;1.25;;;18.10;70.10;;;;;;5032645;28;20025;-70
2023/04/11 11:44:00;;;;;;;2.45;1.00;;;18.10;70.10;;;;;;5031648;28;20021;-70
2023/04/11 11:46:30;;;;;;;2.00;0.90;;;18.20;70.20;;;;;;5031895;28;20538;-70
2023/04/11 11:49:07;;;;;;;2.70;0.90;;;18.10;70.10;;;;;;5032794;28;20044;-70
2023/04/11 11:51:42;;;;;;;1.65;1.08;;;18.20;70.10;;;;;;5031817;28;20127;-70
2023/04/11 11:54:09;;;;;;;3.15;0.80;;;18.10;70.00;;;;;;5031656;28;20048;-70
2023/04/11 11:56:36;;;;;;;2.17;0.93;;;18.10;70.10;;;;;;5031609;28;20029;-70
2023/04/11 11:59:03;;;;;;;1.60;0.80;;;18.20;70.10;;;;;;5031574;28;20057;-70
2023/04/11 12:01:31;;;;;;;2.72;0.90;;;18.10;70.00;;;;;;5032775;28;20021;-70
2023/04/11 12:03:56;;;;;;;2.17;0.90;;;18.10;70.00;;;;;;5031620;28;20041;-70
2023/04/11 12:06:23;;;;;;;1.20;0.70;;;18.10;70.00;;;;;;5032644;28;20049;-70
2023/04/11 12:08:52;;;;;;;1.77;0.90;;;18.10;70.00;;;;;;4998727;28;20022;-70
2023/04/11 12:11:18;;;;;;;1.80;1.10;;;18.10;70.00;;;;;;5032484;28;20033;-70
2023/04/11 12:13:44;;;;;;;1.52;0.82;;;18.10;70.00;;;;;;5032526;28;20025;-70
2023/04/11 12:16:12;;;;;;;3.05;0.90;;;18.10;69.90;;;;;;5031410;28;20072;-70
2023/04/11 12:18:40;;;;;;;3.40;0.95;;;18.10;69.90;;;;;;5032377;28;20025;-70
2023/04/11 12:21:06;;;;;;;1.13;0.80;;;18.10;69.80;;;;;;5031325;28;20031;-70
2023/04/11 12:23:31;;;;;;;2.35;0.70;;;18.10;69.80;;;;;;5032387;28;20013;-70
2023/04/11 12:25:57;;;;;;;3.33;0.80;;;18.20;69.90;;;;;;5032339;28;20208;-70
2023/04/11 12:28:22;;;;;;;1.55;0.90;;;18.10;69.80;;;;;;5032354;28;20026;-70
2023/04/11 12:30:48;;;;;;;1.63;0.90;;;18.20;69.90;;;;;;5032313;28;20511;-70
2023/04/11 12:33:15;;;;;;;2.58;1.00;;;18.10;69.80;;;;;;5032312;28;20024;-70
2023/04/11 12:35:40;;;;;;;1.98;0.88;;;18.10;69.90;;;;;;5032332;28;20025;-70
2023/04/11 12:38:06;;;;;;;2.17;0.93;;;18.10;69.80;;;;;;5031854;28;20033;-70
2023/04/11 12:40:32;;;;;;;2.25;0.88;;;18.10;69.80;;;;;;5031125;28;20017;-70
2023/04/11 12:42:58;;;;;;;2.22;1.00;;;18.10;69.80;;;;;;5032244;28;20072;-70
2023/04/11 12:45:23;;;;;;;2.78;0.90;;;18.10;69.80;;;;;;5032232;28;20056;-70
2023/04/11 12:47:49;;;;;;;1.58;0.63;;;18.10;69.80;;;;;;5031004;28;20538;-71